createdAt,value
2018-08-10T00:01:45.792Z,149055.36
2018-08-10T00:04:15.946Z,149034.17
2018-08-10T00:06:45.771Z,149020.47
2018-08-10T00:09:15.692Z,149011.75
2018-08-10T00:11:45.446Z,148999.23
2018-08-10T00:14:15.316Z,148990.52
2018-08-10T00:16:45.116Z,148976.81
2018-08-10T00:19:15.157Z,148993.00
2018-08-10T00:21:45.252Z,148975.56
2018-08-10T00:24:15.003Z,148966.84
2018-08-10T00:26:46.410Z,148965.59
2018-08-10T00:29:16.320Z,148971.83
2018-08-10T00:31:46.069Z,148976.81
2018-08-10T00:34:16.130Z,148976.81
2018-08-10T00:36:46.146Z,148986.78
2018-08-10T00:39:18.366Z,148964.36
2018-08-10T00:41:48.195Z,148954.34
2018-08-10T00:46:46.726Z,148934.41
2018-08-10T00:49:16.590Z,148933.16
2018-08-10T00:54:14.828Z,148936.89
2018-08-10T00:56:44.701Z,148949.36
2018-08-10T00:59:14.436Z,148941.88
2018-08-10T01:01:44.638Z,148943.13
2018-08-10T01:04:14.483Z,148960.56
2018-08-10T01:06:44.299Z,148940.64
2018-08-10T01:09:14.495Z,148946.86
2018-08-10T01:11:44.213Z,148946.86
2018-08-10T01:14:14.404Z,148946.86
2018-08-10T01:16:47.633Z,148943.13
2018-08-10T01:19:17.399Z,148911.89
2018-08-10T01:21:47.283Z,148920.66
2018-08-10T01:24:17.218Z,148923.19
2018-08-10T01:26:46.977Z,148894.44
2018-08-10T01:29:16.782Z,148906.91
2018-08-10T01:31:46.568Z,148889.47
2018-08-10T01:34:16.506Z,148901.92
2018-08-10T01:36:46.267Z,148909.41
2018-08-10T01:39:16.059Z,148935.66
2018-08-10T01:41:45.877Z,148923.19
2018-08-10T01:44:15.938Z,148929.42
2018-08-10T01:46:45.887Z,148935.66
2018-08-10T01:49:15.752Z,148940.64
2018-08-10T01:51:45.691Z,148938.14
2018-08-10T01:56:43.936Z,148960.56
2018-08-10T01:59:13.797Z,148988.03
2018-08-10T02:01:43.681Z,148990.52
2018-08-10T02:04:13.755Z,148999.23
2018-08-10T02:06:43.662Z,149011.75
2018-08-10T02:09:13.416Z,149016.73
2018-08-10T02:11:45.226Z,149010.50
2018-08-10T02:14:15.420Z,149009.25
2018-08-10T02:17:17.321Z,148985.53
2018-08-10T02:19:47.115Z,148978.06
2018-08-10T02:22:17.081Z,148963.11
2018-08-10T02:24:46.836Z,148988.03
2018-08-10T02:27:16.715Z,148936.89
2018-08-10T02:29:46.849Z,148936.89
2018-08-10T02:32:16.631Z,148946.86
2018-08-10T02:34:49.549Z,148931.91
2018-08-10T02:37:19.384Z,148929.42
2018-08-10T02:39:53.579Z,148911.89
2018-08-10T02:42:24.470Z,148910.64
2018-08-10T02:44:55.009Z,148906.91
2018-08-10T02:47:25.659Z,148915.67
2018-08-10T02:49:56.593Z,148905.66
2018-08-10T02:52:26.518Z,148900.67
2018-08-10T02:54:56.262Z,148896.94
2018-08-10T02:57:26.089Z,148898.19
2018-08-10T02:59:55.887Z,148889.47
2018-08-10T03:02:27.224Z,148901.92
2018-08-10T03:05:01.435Z,148910.64
2018-08-10T03:07:31.692Z,148915.67
2018-08-10T03:10:10.584Z,148923.19
2018-08-10T03:12:41.734Z,148934.41
2018-08-10T03:15:18.244Z,148946.86
2018-08-10T03:17:48.317Z,148958.08
2018-08-10T03:20:19.729Z,148968.09
2018-08-10T03:22:49.772Z,148991.77
2018-08-10T03:25:19.603Z,149017.97
2018-08-10T03:27:49.388Z,149040.41
2018-08-10T03:30:19.740Z,149042.89
2018-08-10T03:32:49.415Z,149099.03
2018-08-10T03:35:19.314Z,149220.13
2018-08-10T03:37:49.131Z,149355.00
2018-08-10T03:40:19.100Z,149474.84
2018-08-10T03:42:48.943Z,149544.86
2018-08-10T03:45:18.697Z,149612.30
2018-08-10T03:47:48.564Z,149656.03
2018-08-10T03:50:18.477Z,149707.31
2018-08-10T03:52:48.353Z,149793.55
2018-08-10T03:55:18.716Z,149883.61
2018-08-10T03:57:48.671Z,149897.34
2018-08-10T04:00:18.559Z,150001.12
2018-08-10T04:02:50.790Z,150036.22
2018-08-10T04:05:21.184Z,150112.53
2018-08-10T04:07:50.983Z,150123.78
2018-08-10T04:10:23.002Z,150153.81
2018-08-10T04:12:53.797Z,150236.41
2018-08-10T04:15:23.582Z,150256.47
2018-08-10T04:17:54.690Z,150273.97
2018-08-10T04:20:26.720Z,150397.95
2018-08-10T04:22:56.535Z,150443.03
2018-08-10T04:25:26.339Z,150496.91
2018-08-10T04:27:56.213Z,150533.23
2018-08-10T04:33:18.689Z,150667.28
2018-08-10T04:36:15.796Z,150719.94
2018-08-10T04:38:47.008Z,150702.36
2018-08-10T04:41:20.913Z,150612.11
2018-08-10T04:43:51.973Z,150683.59
2018-08-10T04:46:22.533Z,150681.09
2018-08-10T04:48:52.518Z,150709.88
2018-08-10T04:51:22.330Z,150807.66
2018-08-10T04:53:52.113Z,150669.83
2018-08-10T04:56:22.101Z,150712.38
2018-08-10T04:58:52.083Z,150803.91
2018-08-10T05:01:22.618Z,150895.39
2018-08-10T05:03:52.668Z,150744.97
2018-08-10T05:06:22.661Z,150354.14
2018-08-10T05:08:52.656Z,150597.09
2018-08-10T05:11:22.527Z,150895.39
2018-08-10T05:13:52.431Z,151062.22
2018-08-10T05:16:23.547Z,151196.47
2018-08-10T05:18:53.860Z,151092.33
2018-08-10T05:21:23.708Z,151220.28
2018-08-10T05:23:53.476Z,151077.25
2018-08-10T05:26:23.660Z,151255.47
2018-08-10T05:28:53.390Z,151424.89
2018-08-10T05:31:23.365Z,151529.16
2018-08-10T05:33:53.730Z,151608.22
2018-08-10T05:36:23.856Z,151784.16
2018-08-10T05:38:56.296Z,151862.06
2018-08-10T05:41:26.302Z,151804.23
2018-08-10T05:43:59.367Z,151570.55
2018-08-10T05:46:29.395Z,151599.44
2018-08-10T05:48:59.116Z,151730.09
2018-08-10T05:51:28.849Z,151869.59
2018-08-10T05:53:58.638Z,151877.13
2018-08-10T05:56:28.403Z,152030.52
2018-08-10T05:58:58.129Z,151777.88
2018-08-10T06:01:28.035Z,151981.45
2018-08-10T06:03:58.285Z,151854.47
2018-08-10T06:06:33.063Z,151535.44
2018-08-10T06:09:04.575Z,151761.47
2018-08-10T06:11:34.418Z,151707.47
2018-08-10T06:14:04.159Z,151692.42
2018-08-10T06:16:34.468Z,151961.36
2018-08-10T06:19:04.308Z,152050.64
2018-08-10T06:21:34.274Z,151932.44
2018-08-10T06:24:04.707Z,151850.72
2018-08-10T06:26:35.168Z,151883.39
2018-08-10T06:29:05.717Z,152084.55
2018-08-10T06:31:35.873Z,152049.39
2018-08-10T06:34:06.347Z,151966.38
2018-08-10T06:36:36.303Z,151802.97
2018-08-10T06:39:12.469Z,151907.34
2018-08-10T06:41:42.563Z,151620.81
2018-08-10T06:44:12.419Z,151882.14
2018-08-10T06:46:42.491Z,151808.00
2018-08-10T06:49:13.284Z,151917.38
2018-08-10T06:51:43.427Z,151928.69
2018-08-10T06:54:13.328Z,151604.47
2018-08-10T06:56:43.114Z,151687.39
2018-08-10T06:59:13.469Z,151650.97
2018-08-10T07:01:43.333Z,151661.00
2018-08-10T07:04:13.957Z,151868.33
2018-08-10T07:06:43.975Z,151991.50
2018-08-10T07:09:14.765Z,151995.25
2018-08-10T07:11:47.225Z,152029.25
2018-08-10T07:14:22.197Z,151845.69
2018-08-10T07:16:56.802Z,151971.41
2018-08-10T07:19:27.735Z,152455.66
2018-08-10T07:21:57.740Z,152102.17
2018-08-10T07:24:27.681Z,152028.00
2018-08-10T07:27:02.888Z,152083.30
2018-08-10T07:29:33.241Z,152123.53
2018-08-10T07:32:03.534Z,152528.70
2018-08-10T07:34:33.470Z,152191.44
2018-08-10T07:37:03.456Z,151991.50
2018-08-10T07:39:33.400Z,151982.70
2018-08-10T07:42:05.761Z,151834.41
2018-08-10T07:44:36.722Z,151836.91
2018-08-10T07:47:07.026Z,151558.00
2018-08-10T07:49:38.025Z,151401.06
2018-08-10T07:52:08.488Z,151205.25
2018-08-10T07:54:40.925Z,151063.47
2018-08-10T07:57:10.985Z,150960.66
2018-08-10T07:59:40.983Z,150951.84
2018-08-10T08:02:11.108Z,150800.14
2018-08-10T08:04:41.068Z,150752.47
2018-08-10T08:07:11.015Z,150622.17
2018-08-10T08:09:40.970Z,150569.53
2018-08-10T08:12:11.384Z,150518.19
2018-08-10T08:14:41.143Z,150578.33
2018-08-10T08:17:11.060Z,150547.00
2018-08-10T08:19:40.965Z,150552.00
2018-08-10T08:22:20.460Z,150587.09
2018-08-10T08:24:50.394Z,150594.59
2018-08-10T08:27:20.899Z,150564.52
2018-08-10T08:29:51.003Z,150598.34
2018-08-10T08:32:20.930Z,150634.69
2018-08-10T08:34:51.040Z,150726.19
2018-08-10T08:37:20.948Z,150763.80
2018-08-10T08:41:04.981Z,150733.70
2018-08-10T08:46:02.488Z,150737.45
2018-08-10T08:48:35.307Z,150674.83
2018-08-10T08:51:07.233Z,150701.11
2018-08-10T08:53:43.224Z,150714.87
2018-08-10T08:56:14.871Z,150696.11
2018-08-10T08:58:45.879Z,150704.86
2018-08-10T09:01:16.200Z,150684.84
2018-08-10T09:05:03.161Z,150729.95
2018-08-10T09:07:36.950Z,150623.42
2018-08-10T09:10:14.828Z,150599.59
2018-08-10T09:12:44.677Z,150587.09
2018-08-10T09:15:16.235Z,150603.36
2018-08-10T09:17:46.052Z,150531.98
2018-08-10T09:20:15.837Z,150539.50
2018-08-10T09:22:45.585Z,150637.19
2018-08-10T09:25:17.369Z,150649.75
2018-08-10T09:27:47.151Z,150605.86
2018-08-10T09:30:18.583Z,150651.00
2018-08-10T09:32:48.477Z,150664.77
2018-08-10T09:35:18.221Z,150672.33
2018-08-10T09:37:53.700Z,150610.86
2018-08-10T09:40:23.416Z,150672.33
2018-08-10T09:42:53.223Z,150691.09
2018-08-10T09:45:23.233Z,150657.25
2018-08-10T09:47:53.069Z,150620.88
2018-08-10T09:50:23.176Z,150692.34
2018-08-10T09:52:58.734Z,150686.09
2018-08-10T09:55:34.140Z,150671.08
2018-08-10T09:58:07.559Z,150594.59
2018-08-10T10:00:42.612Z,150542.00
2018-08-10T10:03:18.100Z,150508.17
2018-08-10T10:05:48.985Z,150520.69
2018-08-10T10:08:20.348Z,150516.92
2018-08-10T10:10:51.267Z,150490.61
2018-08-10T10:13:21.052Z,150516.92
2018-08-10T10:15:50.853Z,150580.83
2018-08-10T10:18:20.723Z,150568.28
2018-08-10T10:20:50.651Z,150564.52
2018-08-10T10:23:20.427Z,150534.50
2018-08-10T10:25:50.286Z,150578.33
2018-08-10T10:28:20.595Z,150597.09
2018-08-10T10:30:50.337Z,150612.11
2018-08-10T10:33:20.029Z,150573.28
2018-08-10T10:35:49.738Z,150523.19
2018-08-10T10:38:20.153Z,150563.27
2018-08-10T10:40:49.900Z,150554.50
2018-08-10T10:43:21.035Z,150584.59
2018-08-10T10:45:50.690Z,150603.36
2018-08-10T10:48:20.413Z,150564.52
2018-08-10T10:50:50.189Z,150575.83
2018-08-10T10:53:20.257Z,150530.73
2018-08-10T10:55:49.900Z,150577.08
2018-08-10T10:58:19.890Z,150534.50
2018-08-10T11:00:50.208Z,150562.02
2018-08-10T11:03:21.249Z,150574.58
2018-08-10T11:05:50.966Z,150607.11
2018-08-10T11:08:20.773Z,150580.83
2018-08-10T11:10:51.179Z,150531.98
2018-08-10T11:13:20.966Z,150548.25
2018-08-10T11:15:50.843Z,150514.42
2018-08-10T11:18:22.350Z,150518.19
2018-08-10T11:20:52.126Z,150529.48
2018-08-10T11:23:21.778Z,150501.92
2018-08-10T11:25:53.069Z,150478.06
2018-08-10T11:28:22.731Z,150503.17
2018-08-10T11:30:52.499Z,150511.92
2018-08-10T11:33:22.221Z,150537.00
2018-08-10T11:35:52.120Z,150500.66
2018-08-10T11:38:22.225Z,150495.66
2018-08-10T11:40:52.213Z,150483.09
2018-08-10T11:43:22.983Z,150493.16
2018-08-10T11:45:52.694Z,150529.48
2018-08-10T11:48:25.739Z,150543.25
2018-08-10T11:50:55.532Z,150559.52
2018-08-10T11:53:25.353Z,150597.09
2018-08-10T11:55:55.213Z,150526.98
2018-08-10T11:58:25.724Z,150441.78
2018-08-10T12:00:55.816Z,150430.47
2018-08-10T12:03:25.739Z,150483.09
2018-08-10T12:05:56.580Z,150489.36
2018-08-10T12:08:26.369Z,150466.80
2018-08-10T12:10:56.716Z,150475.55
2018-08-10T12:13:26.455Z,150460.53
2018-08-10T12:15:57.358Z,150458.03
2018-08-10T12:18:28.417Z,150448.03
2018-08-10T12:20:58.220Z,150468.05
2018-08-10T12:23:28.002Z,150480.61
2018-08-10T12:25:57.850Z,150436.78
2018-08-10T12:28:27.601Z,150409.22
2018-08-10T12:30:57.541Z,150386.70
2018-08-10T12:33:27.330Z,150374.14
2018-08-10T12:35:57.071Z,150382.91
2018-08-10T12:38:26.765Z,150435.53
2018-08-10T12:40:56.361Z,150438.03
2018-08-10T12:43:26.222Z,150429.22
2018-08-10T12:45:55.953Z,150426.72
2018-08-10T12:48:25.764Z,150443.03
2018-08-10T12:50:55.672Z,150451.78
2018-08-10T12:53:29.931Z,150434.28
2018-08-10T12:55:59.964Z,150415.47
2018-08-10T12:58:29.864Z,150401.70
2018-08-10T13:00:59.706Z,150387.95
2018-08-10T13:03:30.816Z,150396.70
2018-08-10T13:06:01.730Z,150410.47
2018-08-10T13:08:31.910Z,150420.47
2018-08-10T13:11:01.797Z,150361.64
2018-08-10T13:13:32.254Z,150370.39
2018-08-10T13:16:02.385Z,150407.95
2018-08-10T13:18:32.202Z,150435.53
2018-08-10T13:21:17.473Z,150380.39
2018-08-10T13:23:47.344Z,150379.16
2018-08-10T13:26:17.056Z,150326.53
2018-08-10T13:29:03.691Z,150334.03
2018-08-10T13:31:33.610Z,150377.91
2018-08-10T13:34:04.153Z,150409.22
2018-08-10T13:37:24.276Z,150345.37
2018-08-10T13:39:55.508Z,150346.64
2018-08-10T13:42:25.622Z,150350.38
2018-08-10T13:44:56.058Z,150371.64
2018-08-10T13:47:25.779Z,150371.64
2018-08-10T13:49:55.628Z,150325.28
2018-08-10T13:52:26.058Z,150302.78
2018-08-10T13:54:55.758Z,150326.53
2018-08-10T13:57:25.397Z,150311.53
2018-08-10T13:59:55.716Z,150324.03
2018-08-10T14:02:26.742Z,150289.02
2018-08-10T14:04:57.189Z,150253.97
2018-08-10T14:07:27.828Z,150316.53
2018-08-10T14:09:57.635Z,150361.64
2018-08-10T14:12:27.671Z,150369.14
2018-08-10T14:14:57.425Z,150325.28
2018-08-10T14:17:28.060Z,150253.97
2018-08-10T14:19:57.747Z,150231.42
2018-08-10T14:22:27.593Z,150262.72
2018-08-10T14:24:57.322Z,150232.66
2018-08-10T14:27:27.050Z,150236.41
2018-08-10T14:29:57.017Z,150265.22
2018-08-10T14:32:26.864Z,150265.22
2018-08-10T14:34:56.656Z,150277.72
2018-08-10T14:37:26.704Z,150240.16
2018-08-10T14:39:56.816Z,150226.41
2018-08-10T14:42:26.905Z,150213.91
2018-08-10T14:44:56.934Z,150205.16
2018-08-10T14:47:27.603Z,150242.72
2018-08-10T14:49:58.659Z,150222.66
2018-08-10T14:52:30.696Z,150225.17
2018-08-10T14:55:02.669Z,150226.41
2018-08-10T14:57:35.759Z,150227.66
2018-08-10T15:00:12.368Z,150195.16
2018-08-10T15:02:42.051Z,150188.86
2018-08-10T15:05:12.505Z,150201.41
2018-08-10T15:07:42.729Z,150176.36
2018-08-10T15:10:18.910Z,150167.56
2018-08-10T15:12:48.805Z,150158.81
2018-08-10T15:15:20.498Z,150131.28
2018-08-10T15:17:51.724Z,150157.56
2018-08-10T15:20:22.168Z,150156.31
2018-08-10T15:22:52.173Z,150160.06
2018-08-10T15:25:21.996Z,150147.56
2018-08-10T15:27:52.346Z,150121.28
2018-08-10T15:30:22.081Z,150117.53
2018-08-10T15:32:52.009Z,150116.28
2018-08-10T15:35:22.001Z,150107.53
2018-08-10T15:37:52.465Z,150112.53
2018-08-10T15:40:22.438Z,150118.78
2018-08-10T15:42:54.939Z,150111.28
2018-08-10T15:45:25.579Z,150053.75
2018-08-10T15:47:58.615Z,150060.00
2018-08-10T15:50:29.177Z,150063.75
2018-08-10T15:52:58.885Z,150034.95
2018-08-10T15:55:28.600Z,150037.45
2018-08-10T15:58:00.660Z,150034.95
2018-08-10T16:00:42.351Z,150022.47
2018-08-10T16:03:12.295Z,150004.92
2018-08-10T16:05:42.042Z,149986.13
2018-08-10T16:08:15.710Z,149971.14
2018-08-10T16:10:45.450Z,149988.64
2018-08-10T16:13:15.206Z,149986.13
2018-08-10T16:15:44.892Z,149974.89
2018-08-10T16:18:14.735Z,149971.14
2018-08-10T16:20:46.088Z,149981.14
2018-08-10T16:23:16.834Z,149971.14
2018-08-10T16:25:46.535Z,149992.38
2018-08-10T16:28:16.567Z,149988.64
2018-08-10T16:30:46.277Z,149988.64
2018-08-10T16:33:17.296Z,149961.16
2018-08-10T16:35:46.995Z,149951.11
2018-08-10T16:38:17.776Z,149936.13
2018-08-10T16:40:50.010Z,149919.88
2018-08-10T16:43:22.955Z,149908.59
2018-08-10T16:45:54.281Z,149883.61
2018-08-10T16:48:24.128Z,149874.87
2018-08-10T16:50:53.749Z,149841.05
2018-08-10T16:53:23.599Z,149841.05
2018-08-10T16:55:54.131Z,149824.81
2018-08-10T16:58:24.520Z,149813.53
2018-08-10T17:00:54.704Z,149796.05
2018-08-10T17:03:24.973Z,149313.78
2018-08-10T17:05:54.669Z,149786.06
2018-08-10T17:08:24.540Z,149798.55
2018-08-10T17:10:54.935Z,149769.83
2018-08-10T17:13:26.874Z,149766.03
2018-08-10T17:15:56.735Z,149748.56
2018-08-10T17:18:27.074Z,149763.53
2018-08-10T17:20:56.808Z,149743.56
2018-08-10T17:23:28.269Z,149757.28
2018-08-10T17:25:58.112Z,149726.08
2018-08-10T17:28:27.748Z,149704.81
2018-08-10T17:30:57.557Z,149712.30
2018-08-10T17:33:27.371Z,149703.56
2018-08-10T17:35:57.076Z,149682.34
2018-08-10T17:38:26.841Z,149662.27
2018-08-10T17:40:56.685Z,149629.81
2018-08-10T17:43:26.497Z,149628.56
2018-08-10T17:45:56.301Z,149611.05
2018-08-10T17:48:26.099Z,149598.56
2018-08-10T17:50:56.100Z,149587.34
2018-08-10T17:53:25.893Z,149583.59
2018-08-10T17:55:57.426Z,149579.84
2018-08-10T17:58:27.102Z,149582.34
2018-08-10T18:00:56.809Z,149586.09
2018-08-10T18:03:43.752Z,149569.81
2018-08-10T18:06:14.508Z,149564.81
2018-08-10T18:08:44.430Z,149523.59
2018-08-10T18:11:14.064Z,149538.63
2018-08-10T18:13:43.910Z,149522.34
2018-08-10T18:16:13.876Z,149516.11
2018-08-10T18:18:43.923Z,149513.62
2018-08-10T18:21:15.085Z,149516.11
2018-08-10T18:23:44.960Z,149499.89
2018-08-10T18:26:16.452Z,149483.63
2018-08-10T18:28:49.285Z,149487.36
2018-08-10T18:31:23.098Z,149467.36
2018-08-10T18:33:53.818Z,149462.36
2018-08-10T18:36:24.823Z,149466.11
2018-08-10T18:38:55.248Z,149442.41
2018-08-10T18:41:25.172Z,149421.16
2018-08-10T18:44:16.333Z,149394.95
2018-08-10T18:46:46.310Z,149379.94
2018-08-10T18:49:16.090Z,149359.98
2018-08-10T18:51:46.419Z,149376.20
2018-08-10T18:54:16.905Z,149368.72
2018-08-10T18:56:47.122Z,149366.22
2018-08-10T18:59:17.123Z,149363.72
2018-08-10T19:01:48.172Z,149337.48
2018-08-10T19:04:25.717Z,149335.00
2018-08-10T19:07:06.929Z,149312.55
2018-08-10T19:10:03.909Z,149311.30
2018-08-10T19:12:43.918Z,149318.78
2018-08-10T19:15:25.886Z,149287.50
2018-08-10T19:17:57.724Z,149281.28
2018-08-10T19:20:27.462Z,149271.30
2018-08-10T19:22:57.442Z,149271.30
2018-08-10T19:25:28.231Z,149266.31
2018-08-10T19:27:58.437Z,149282.52
2018-08-10T19:30:28.173Z,149262.56
2018-08-10T19:32:58.449Z,149250.09
2018-08-10T19:35:30.380Z,149252.59
2018-08-10T19:38:00.229Z,149233.84
2018-08-10T19:40:30.492Z,149236.34
2018-08-10T19:43:01.716Z,149218.88
2018-08-10T19:45:35.260Z,149213.89
2018-08-10T19:48:07.580Z,149213.89
2018-08-10T19:53:44.919Z,149213.89
2018-08-10T19:56:16.097Z,149185.17
2018-08-10T19:58:48.530Z,149196.39
2018-08-10T20:01:19.108Z,149181.44
2018-08-10T20:03:50.404Z,149126.53
2018-08-10T20:06:20.079Z,149095.28
2018-08-10T20:08:52.739Z,149070.36
2018-08-10T20:11:22.903Z,149029.19
2018-08-10T20:13:55.003Z,149001.73
2018-08-10T20:16:24.810Z,149015.48
2018-08-10T20:18:55.950Z,148999.23
2018-08-10T20:21:25.989Z,148990.52
2018-08-10T20:23:59.795Z,148970.58
2018-08-10T20:26:29.654Z,148968.09
2018-08-10T20:29:03.136Z,148959.31
2018-08-10T20:31:33.885Z,148956.83
2018-08-10T20:34:03.977Z,148954.34
2018-08-10T20:36:34.287Z,148941.88
2018-08-10T20:39:04.739Z,148948.11
2018-08-10T20:41:34.843Z,148926.94
2018-08-10T20:44:06.063Z,148935.66
2018-08-10T20:46:37.046Z,148943.13
2018-08-10T20:49:10.283Z,148936.89
2018-08-10T20:51:39.988Z,148930.67
2018-08-10T20:54:09.922Z,148910.64
2018-08-10T20:56:39.688Z,148918.16
2018-08-10T20:59:09.466Z,148919.41
2018-08-10T21:01:39.237Z,148934.41
2018-08-10T21:04:09.129Z,148928.19
2018-08-10T21:06:40.877Z,148914.42
2018-08-10T21:09:14.182Z,148924.44
2018-08-10T21:11:45.323Z,148910.64
2018-08-10T21:14:15.752Z,148918.16
2018-08-10T21:16:45.666Z,148929.42
2018-08-10T21:19:15.651Z,148925.69
2018-08-10T21:21:45.433Z,148915.67
2018-08-10T21:24:15.261Z,148857.03
2018-08-10T21:26:45.085Z,148945.63
2018-08-10T21:29:14.869Z,148936.89
2018-08-10T21:31:45.660Z,148936.89
2018-08-10T21:34:15.581Z,148930.67
2018-08-10T21:36:45.477Z,148938.14
2018-08-10T21:39:15.215Z,148956.83
2018-08-10T21:41:44.985Z,148961.86
2018-08-10T21:44:14.724Z,148955.59
2018-08-10T21:46:44.661Z,148931.91
2018-08-10T21:49:14.414Z,148880.75
2018-08-10T21:51:45.939Z,148954.34
2018-08-10T21:54:33.738Z,148943.13
2018-08-10T21:57:04.485Z,148936.89
2018-08-10T21:59:34.505Z,148939.39
2018-08-10T22:02:04.730Z,148931.91
2018-08-10T22:04:34.490Z,148931.91
2018-08-10T22:07:04.688Z,148933.16
2018-08-10T22:09:36.724Z,148940.64
2018-08-10T22:12:13.913Z,148934.41
2018-08-10T22:14:50.028Z,148958.08
2018-08-10T22:17:24.933Z,148969.34
2018-08-10T22:20:14.870Z,148969.34
2018-08-10T22:22:45.597Z,148979.31
2018-08-10T22:25:16.323Z,148969.34
2018-08-10T22:27:46.147Z,148964.36
2018-08-10T22:30:16.634Z,148964.36
2018-08-10T22:32:46.672Z,148955.59
2018-08-10T22:35:16.727Z,148971.83
2018-08-10T22:37:46.732Z,148979.31
2018-08-10T22:40:16.580Z,148974.31
2018-08-10T22:42:46.541Z,148970.58
2018-08-10T22:45:16.347Z,148980.55
2018-08-10T22:47:46.423Z,148981.80
2018-08-10T22:50:16.260Z,148988.03
2018-08-10T22:52:46.032Z,148970.58
2018-08-10T22:55:16.206Z,148990.52
2018-08-10T22:57:46.210Z,148973.08
2018-08-10T23:00:15.977Z,148976.81
2018-08-10T23:02:45.700Z,148958.08
2018-08-10T23:05:15.747Z,148971.83
2018-08-10T23:07:45.695Z,148974.31
2018-08-10T23:10:16.692Z,148974.31
2018-08-10T23:12:46.562Z,148985.53
2018-08-10T23:15:16.495Z,148993.00
2018-08-10T23:17:46.486Z,148980.55
2018-08-10T23:20:17.553Z,148981.80
2018-08-10T23:22:48.734Z,148991.77
2018-08-10T23:25:18.565Z,148988.03
2018-08-10T23:27:51.170Z,148990.52
2018-08-10T23:30:21.178Z,148980.55
2018-08-10T23:32:50.916Z,148980.55
2018-08-10T23:35:21.689Z,148980.55
2018-08-10T23:37:51.558Z,148973.08
2018-08-10T23:40:21.378Z,148984.28
2018-08-10T23:42:51.220Z,148988.03
2018-08-10T23:45:21.090Z,148975.56
2018-08-10T23:47:51.913Z,148994.25
2018-08-10T23:50:23.075Z,148989.27
2018-08-10T23:52:52.939Z,149010.50
2018-08-10T23:55:22.747Z,149041.66
2018-08-10T23:57:52.542Z,149051.63
